Time;durP1;ratioP1;P1;durP2;ratioP2;P2;SDS_P1;SDS_P2;PMS_P1;PMS_P2;Temp;Humidity;BMP_temperature;BMP_pressure;BME280_temperature;BME280_humidity;BME280_pressure;Samples;Min_cycle;Max_cycle;Signal;HPM_P1;HPM_P2
2022/08/13 00:01:19;;;;;;;3.87;2.60;;;;;;;17.08;93.71;101080.91;4950088;28;20202;-71
2022/08/13 00:03:46;;;;;;;2.87;2.57;;;;;;;17.14;96.09;101075.38;4970497;28;20202;-72
2022/08/13 00:06:38;;;;;;;2.33;2.13;;;;;;;17.10;95.89;101074.66;4971771;28;20228;-70
2022/08/13 00:09:02;;;;;;;3.37;2.77;;;;;;;17.07;96.60;101071.31;4969979;28;20220;-72
2022/08/13 00:14:13;;;;;;;3.33;3.00;;;;;;;16.87;97.57;101074.84;4955053;28;20299;-72
2022/08/13 00:16:40;;;;;;;2.63;2.43;;;;;;;16.80;98.82;101069.84;4972126;28;20583;-72
2022/08/13 00:19:06;;;;;;;2.70;2.50;;;;;;;16.78;98.85;101070.81;4972022;28;20571;-72
2022/08/13 00:21:33;;;;;;;3.20;2.83;;;;;;;16.62;99.56;101082.06;4971790;28;20200;-71
2022/08/13 00:23:59;;;;;;;3.40;2.80;;;;;;;16.56;98.96;101081.47;4954642;28;20210;-72
2022/08/13 00:26:26;;;;;;;3.40;2.77;;;;;;;16.58;98.61;101079.63;4969085;28;20218;-72
2022/08/13 00:28:55;;;;;;;2.87;2.53;;;;;;;16.57;99.05;101075.25;4954548;28;20223;-72
2022/08/13 00:31:21;;;;;;;3.87;3.13;;;;;;;16.53;98.37;101076.34;4975317;28;20217;-72
2022/08/13 00:33:48;;;;;;;3.60;2.73;;;;;;;16.51;99.52;101070.28;4972128;28;20234;-72
2022/08/13 00:36:16;;;;;;;2.60;2.40;;;;;;;16.50;99.76;101069.44;4993505;23;20710;-69
2022/08/13 00:38:44;;;;;;;5.10;3.00;;;;;;;16.44;99.17;101067.06;4989508;28;20218;-68
2022/08/13 00:41:37;;;;;;;4.20;3.30;;;;;;;16.40;99.48;101063.72;4988806;28;20288;-69
2022/08/13 00:44:01;;;;;;;4.60;2.97;;;;;;;16.41;100.00;101062.81;4980460;28;20286;-70
2022/08/13 00:46:28;;;;;;;5.00;3.20;;;;;;;16.36;100.00;101070.03;4986900;28;20235;-70
2022/08/13 00:48:54;;;;;;;3.83;3.30;;;;;;;16.31;100.00;101066.75;4969196;28;20852;-69
2022/08/13 00:51:21;;;;;;;3.37;3.07;;;;;;;16.23;100.00;101069.69;4966588;28;20209;-70
2022/08/13 00:53:48;;;;;;;3.77;3.20;;;;;;;16.24;100.00;101071.41;4962552;28;20238;-68
2022/08/13 00:56:17;;;;;;;3.47;3.17;;;;;;;16.20;100.00;101076.84;4967510;28;20227;-70
2022/08/13 00:58:45;;;;;;;3.93;2.67;;;;;;;16.21;100.00;101070.69;4970244;28;20209;-70
2022/08/13 01:01:13;;;;;;;4.33;3.13;;;;;;;16.15;100.00;101068.34;4973845;28;20612;-70
2022/08/13 01:03:39;;;;;;;4.97;3.20;;;;;;;16.19;100.00;101062.00;4969362;28;20202;-69
2022/08/13 01:06:10;;;;;;;5.00;3.47;;;;;;;16.17;100.00;101061.22;4969048;28;20291;-69
2022/08/13 01:08:40;;;;;;;3.80;3.33;;;;;;;16.12;100.00;101058.78;4970147;28;20210;-70
2022/08/13 01:11:08;;;;;;;3.90;3.10;;;;;;;16.13;100.00;101054.38;4969945;28;20202;-70
2022/08/13 01:13:36;;;;;;;5.50;3.20;;;;;;;16.08;100.00;101058.06;4971030;28;20216;-70
2022/08/13 01:16:06;;;;;;;4.40;3.10;;;;;;;16.04;100.00;101059.13;4973181;28;20504;-70
2022/08/13 01:18:36;;;;;;;4.20;3.10;;;;;;;15.98;100.00;101048.00;4976777;28;20589;-70
2022/08/13 01:21:08;;;;;;;3.23;2.93;;;;;;;15.90;100.00;101046.53;4971886;28;20194;-70
2022/08/13 01:23:37;;;;;;;4.03;3.17;;;;;;;15.89;100.00;101042.19;4973157;28;20566;-70
2022/08/13 01:26:04;;;;;;;3.90;3.20;;;;;;;15.89;100.00;101049.22;4973436;28;20232;-70
2022/08/13 01:28:30;;;;;;;4.20;3.10;;;;;;;15.77;100.00;101052.38;4971487;28;20186;-70
2022/08/13 01:31:06;;;;;;;4.07;3.63;;;;;;;15.81;100.00;101056.56;4967494;28;20566;-70
2022/08/13 01:33:35;;;;;;;4.53;3.57;;;;;;;15.69;100.00;101056.13;4984912;28;20291;-70
2022/08/13 01:36:03;;;;;;;4.03;3.30;;;;;;;15.62;100.00;101046.78;4974015;28;20312;-70
2022/08/13 01:38:30;;;;;;;4.57;3.50;;;;;;;15.63;100.00;101045.84;4972682;28;20206;-69
2022/08/13 01:40:58;;;;;;;4.07;3.57;;;;;;;15.67;100.00;101047.47;4977143;28;20577;-70
2022/08/13 01:43:28;;;;;;;3.20;2.83;;;;;;;15.75;100.00;101036.66;4973392;28;20198;-68
2022/08/13 01:45:55;;;;;;;3.80;3.40;;;;;;;15.75;100.00;101047.16;4972140;28;20740;-68
2022/08/13 01:51:08;;;;;;;4.93;3.23;;;;;;;15.81;100.00;101038.16;4961997;28;20216;-70
2022/08/13 01:53:34;;;;;;;4.67;3.50;;;;;;;15.73;100.00;101048.97;4973090;28;20210;-70
2022/08/13 01:56:03;;;;;;;4.07;3.13;;;;;;;15.81;100.00;101044.31;4975313;28;20233;-70
2022/08/13 01:58:30;;;;;;;6.50;3.23;;;;;;;15.77;100.00;101050.59;4975365;28;20666;-70
2022/08/13 02:00:59;;;;;;;4.43;3.67;;;;;;;15.84;100.00;101048.56;4972605;28;20217;-70
2022/08/13 02:03:26;;;;;;;5.03;3.73;;;;;;;15.82;100.00;101046.00;4972022;28;20236;-70
2022/08/13 02:05:56;;;;;;;4.03;3.60;;;;;;;15.80;100.00;101053.09;4971672;28;20225;-70
2022/08/13 02:08:26;;;;;;;4.87;3.90;;;;;;;15.77;100.00;101047.94;4976436;28;20253;-69
2022/08/13 02:10:56;;;;;;;5.20;4.13;;;;;;;15.75;100.00;101041.91;4972838;28;20212;-70
2022/08/13 02:13:28;;;;;;;6.10;5.20;;;;;;;15.75;100.00;101034.03;4971964;28;20221;-70
2022/08/13 02:15:54;;;;;;;5.97;4.87;;;;;;;15.69;100.00;101034.25;4972669;28;20233;-70
2022/08/13 02:18:22;;;;;;;6.60;5.43;;;;;;;15.64;100.00;101047.56;4965805;28;20220;-70
2022/08/13 02:20:51;;;;;;;6.77;5.30;;;;;;;15.62;100.00;101038.03;4966336;28;20215;-70
2022/08/13 02:23:20;;;;;;;6.57;5.03;;;;;;;15.58;100.00;101042.56;4965888;28;20274;-70
2022/08/13 02:25:48;;;;;;;7.33;4.80;;;;;;;15.55;100.00;101042.69;4972051;28;20233;-69
2022/08/13 02:28:15;;;;;;;6.10;3.63;;;;;;;15.53;100.00;101037.50;4972261;28;20217;-69
2022/08/13 02:30:43;;;;;;;4.57;3.57;;;;;;;15.55;100.00;101039.19;4964578;28;20301;-69
2022/08/13 02:33:10;;;;;;;3.60;3.30;;;;;;;15.52;100.00;101038.41;4972409;28;20229;-70
2022/08/13 02:35:37;;;;;;;4.37;3.60;;;;;;;15.46;100.00;101033.41;4975054;28;20682;-69
2022/08/13 02:38:04;;;;;;;4.07;3.57;;;;;;;15.50;100.00;101032.34;4972698;28;20229;-69
2022/08/13 02:43:16;;;;;;;4.53;3.80;;;;;;;15.37;100.00;101043.41;4972810;28;20249;-70
2022/08/13 02:45:45;;;;;;;3.93;3.17;;;;;;;15.44;100.00;101050.13;4978606;28;20216;-67
2022/08/13 02:48:11;;;;;;;4.57;3.50;;;;;;;15.43;100.00;101049.28;4982909;28;20204;-70
2022/08/13 02:50:42;;;;;;;5.27;4.00;;;;;;;15.42;100.00;101044.94;4983938;28;20214;-70
2022/08/13 02:53:09;;;;;;;4.10;3.70;;;;;;;15.30;100.00;101048.94;4979209;28;20222;-71
2022/08/13 02:55:36;;;;;;;5.00;3.80;;;;;;;15.26;100.00;101047.31;4979017;28;20206;-72
2022/08/13 02:58:04;;;;;;;4.37;3.77;;;;;;;15.33;100.00;101043.53;4977772;28;20230;-71
2022/08/13 03:00:31;;;;;;;4.47;3.80;;;;;;;15.35;100.00;101046.09;4976463;28;20572;-69
2022/08/13 03:02:59;;;;;;;4.10;3.70;;;;;;;15.38;100.00;101045.13;4965059;28;20210;-70
2022/08/13 03:05:27;;;;;;;4.60;3.50;;;;;;;15.23;100.00;101044.84;4954105;28;20214;-70
2022/08/13 03:07:53;;;;;;;4.13;3.73;;;;;;;15.20;100.00;101046.72;4973118;28;20202;-70
2022/08/13 03:10:22;;;;;;;4.90;4.10;;;;;;;15.30;100.00;101046.31;4973144;28;20546;-70
2022/08/13 03:12:53;;;;;;;4.07;3.40;;;;;;;15.35;100.00;101053.97;4973359;28;20218;-70
2022/08/13 03:15:22;;;;;;;4.53;3.70;;;;;;;14.96;100.00;101047.56;4973185;28;20568;-70
2022/08/13 03:17:49;;;;;;;5.17;3.97;;;;;;;14.84;100.00;101044.56;4973011;28;20209;-70
2022/08/13 03:20:17;;;;;;;4.53;3.60;;;;;;;14.89;100.00;101043.47;4975603;28;20201;-69
2022/08/13 03:22:48;;;;;;;4.67;3.67;;;;;;;14.95;100.00;101039.75;4964724;28;20212;-69
2022/08/13 03:25:15;;;;;;;5.57;4.90;;;;;;;14.96;100.00;101044.09;4963290;28;20230;-70
2022/08/13 03:27:42;;;;;;;5.13;4.40;;;;;;;15.05;100.00;101049.00;4972478;28;20221;-70
2022/08/13 03:30:11;;;;;;;4.70;4.07;;;;;;;15.13;100.00;101040.84;4972295;28;20212;-69
2022/08/13 03:32:40;;;;;;;4.33;3.83;;;;;;;15.25;100.00;101035.13;4968927;28;20222;-69
2022/08/13 03:35:09;;;;;;;4.30;3.83;;;;;;;15.23;100.00;101029.06;4971567;28;20578;-69
2022/08/13 03:37:37;;;;;;;4.87;3.93;;;;;;;15.20;100.00;101023.94;4976338;28;20284;-70
2022/08/13 03:40:05;;;;;;;4.37;3.80;;;;;;;15.19;100.00;101034.50;4973210;28;20197;-70
2022/08/13 03:42:32;;;;;;;8.10;4.27;;;;;;;15.19;100.00;101029.25;4972446;28;20201;-70
2022/08/13 03:44:58;;;;;;;4.50;3.67;;;;;;;15.17;100.00;101024.03;4972108;28;20198;-70
2022/08/13 03:47:24;;;;;;;4.23;3.63;;;;;;;15.14;100.00;101030.28;4971639;28;20579;-70
2022/08/13 03:49:51;;;;;;;3.90;3.50;;;;;;;15.28;100.00;101031.50;4972271;28;20216;-70
2022/08/13 03:52:17;;;;;;;4.67;3.50;;;;;;;15.15;100.00;101039.00;4969892;28;20601;-69
2022/08/13 03:54:45;;;;;;;7.57;3.77;;;;;;;15.27;100.00;101022.78;4966901;28;20642;-69
2022/08/13 03:57:11;;;;;;;5.20;3.80;;;;;;;15.27;100.00;101025.41;4963529;28;20226;-68
2022/08/13 03:59:38;;;;;;;4.20;3.63;;;;;;;15.32;100.00;101022.59;4959982;28;20206;-70
2022/08/13 04:02:06;;;;;;;3.87;3.47;;;;;;;15.25;100.00;101023.72;4973756;28;20223;-70
2022/08/13 04:04:33;;;;;;;5.20;3.80;;;;;;;15.21;100.00;101023.00;4959166;28;20221;-70
2022/08/13 04:07:00;;;;;;;5.57;4.07;;;;;;;15.20;100.00;101018.69;4955426;28;20214;-70
2022/08/13 04:09:26;;;;;;;5.60;4.07;;;;;;;15.25;100.00;101018.47;4960617;28;20234;-69
2022/08/13 04:11:54;;;;;;;4.70;3.93;;;;;;;15.28;100.00;101028.88;4973282;28;20678;-70
2022/08/13 04:14:20;;;;;;;5.00;4.07;;;;;;;15.26;100.00;101028.94;4972627;28;20232;-69
2022/08/13 04:16:47;;;;;;;4.47;3.90;;;;;;;15.30;100.00;101025.28;4972081;28;20229;-69
2022/08/13 04:19:14;;;;;;;4.73;3.83;;;;;;;15.34;100.00;101034.75;4954246;28;20199;-70
2022/08/13 04:21:41;;;;;;;4.73;3.73;;;;;;;15.37;100.00;101028.50;4972449;28;20592;-69
2022/08/13 04:24:11;;;;;;;4.60;3.53;;;;;;;15.32;100.00;101017.34;4972269;28;20213;-69
2022/08/13 04:26:37;;;;;;;4.73;3.80;;;;;;;15.46;100.00;101022.91;4978371;28;20320;-70
2022/08/13 04:29:09;;;;;;;4.60;3.50;;;;;;;15.50;100.00;101021.00;4973713;28;20658;-69
2022/08/13 04:31:36;;;;;;;4.80;3.77;;;;;;;15.48;100.00;101014.97;4971250;28;20284;-70
2022/08/13 04:34:03;;;;;;;5.30;4.10;;;;;;;15.51;100.00;101017.44;4975042;28;20223;-69
2022/08/13 04:36:29;;;;;;;6.87;4.30;;;;;;;15.44;100.00;101015.97;4963677;28;20267;-69
2022/08/13 04:38:56;;;;;;;6.00;3.67;;;;;;;15.46;100.00;101019.41;4969238;28;20202;-69
2022/08/13 04:41:23;;;;;;;5.23;4.13;;;;;;;15.60;100.00;101022.34;4971278;28;20570;-69
2022/08/13 04:43:49;;;;;;;5.03;4.30;;;;;;;15.63;100.00;101021.34;4971065;28;20186;-69
2022/08/13 04:46:17;;;;;;;5.23;4.37;;;;;;;15.61;100.00;101012.69;4974675;28;20256;-70
2022/08/13 04:48:43;;;;;;;5.10;4.27;;;;;;;15.62;100.00;101010.00;4976016;28;20269;-69
2022/08/13 04:51:11;;;;;;;5.87;4.40;;;;;;;15.79;100.00;101011.94;4974216;28;20198;-69
2022/08/13 04:53:38;;;;;;;7.27;4.40;;;;;;;15.95;100.00;101011.28;4973692;28;20221;-70
2022/08/13 04:56:05;;;;;;;6.10;4.37;;;;;;;15.97;100.00;101007.69;4980765;28;20225;-69
2022/08/13 04:58:35;;;;;;;5.43;4.27;;;;;;;16.00;100.00;101009.31;4971761;28;20212;-69
2022/08/13 05:01:06;;;;;;;4.70;3.70;;;;;;;16.01;100.00;101009.25;4973569;28;20197;-70
2022/08/13 05:03:37;;;;;;;5.47;4.47;;;;;;;16.13;100.00;101005.25;4974591;28;20202;-70
2022/08/13 05:06:03;;;;;;;8.67;4.67;;;;;;;16.25;100.00;101010.00;4974032;28;20229;-70
2022/08/13 05:08:31;;;;;;;4.70;4.00;;;;;;;16.34;100.00;101006.09;4974406;28;20325;-70
2022/08/13 05:10:57;;;;;;;5.50;4.07;;;;;;;16.34;100.00;100998.22;4963893;28;20219;-70
2022/08/13 05:13:25;;;;;;;5.43;4.73;;;;;;;16.23;100.00;101000.44;4972479;28;20272;-69
2022/08/13 05:15:54;;;;;;;4.37;3.90;;;;;;;16.39;100.00;101000.63;4974159;28;20229;-68
2022/08/13 05:18:21;;;;;;;5.07;4.17;;;;;;;16.51;100.00;101001.84;4975787;28;20207;-70
2022/08/13 05:20:50;;;;;;;5.47;4.30;;;;;;;16.57;100.00;101001.56;4973571;28;20207;-70
2022/08/13 05:23:17;;;;;;;6.43;4.70;;;;;;;16.55;100.00;101001.66;4974492;28;20198;-69
2022/08/13 05:25:43;;;;;;;4.97;4.00;;;;;;;16.69;100.00;101005.44;4980026;28;20588;-70
2022/08/13 05:28:10;;;;;;;4.27;3.87;;;;;;;16.78;100.00;100995.34;4975277;28;20260;-70
2022/08/13 05:30:38;;;;;;;6.73;4.27;;;;;;;16.81;100.00;101003.06;4978834;28;20210;-69
2022/08/13 05:33:13;;;;;;;7.03;4.20;;;;;;;16.89;100.00;101008.03;4972598;28;20552;-70
2022/08/13 05:35:40;;;;;;;5.53;4.60;;;;;;;16.84;100.00;101000.34;4971254;28;20547;-69
2022/08/13 05:38:08;;;;;;;5.50;4.10;;;;;;;16.96;100.00;100993.66;4972825;28;20588;-70
2022/08/13 05:40:35;;;;;;;5.40;3.93;;;;;;;17.00;100.00;100989.94;4977354;28;20197;-69
2022/08/13 05:43:02;;;;;;;4.67;4.17;;;;;;;17.09;100.00;100991.28;4971874;28;20237;-69
2022/08/13 05:45:29;;;;;;;8.60;4.00;;;;;;;17.26;100.00;100995.75;4971077;28;20210;-70
2022/08/13 05:47:56;;;;;;;6.27;4.73;;;;;;;17.39;100.00;100991.59;4977244;28;20843;-69
2022/08/13 05:50:22;;;;;;;5.60;4.30;;;;;;;17.44;100.00;100990.53;4972428;28;20217;-70
2022/08/13 05:52:49;;;;;;;4.20;3.80;;;;;;;17.52;100.00;100993.63;4972563;28;20210;-70
2022/08/13 05:55:18;;;;;;;7.53;4.37;;;;;;;17.74;100.00;100996.06;4971813;28;20213;-70
2022/08/13 05:57:45;;;;;;;5.03;3.90;;;;;;;17.76;100.00;100995.06;4973673;28;20232;-69
2022/08/13 06:05:39;;;;;;;6.27;4.43;;;;;;;17.97;100.00;101002.81;4971678;28;20216;-69
2022/08/13 06:08:06;;;;;;;6.23;4.60;;;;;;;18.08;100.00;101007.56;4971726;28;20747;-68
2022/08/13 06:10:34;;;;;;;5.33;4.83;;;;;;;18.13;98.71;101005.53;4971597;28;20322;-69
2022/08/13 06:13:02;;;;;;;4.57;3.97;;;;;;;18.29;97.74;101006.47;4973486;28;20214;-69
2022/08/13 06:15:28;;;;;;;18.63;12.70;;;;;;;18.43;97.42;101010.97;4970872;28;20261;-69
2022/08/13 06:17:55;;;;;;;7.50;6.20;;;;;;;18.51;96.69;101006.16;4968545;28;20195;-70
2022/08/13 06:20:21;;;;;;;7.13;6.13;;;;;;;18.67;96.50;101002.69;4961766;28;20205;-70
2022/08/13 06:22:50;;;;;;;9.20;8.13;;;;;;;18.82;95.49;101001.91;4970921;28;20209;-70
2022/08/13 06:25:17;;;;;;;5.87;4.50;;;;;;;19.01;94.63;101008.81;4970948;28;20202;-70
2022/08/13 06:27:45;;;;;;;4.27;3.80;;;;;;;19.12;94.98;101006.44;4973123;28;20229;-70
2022/08/13 06:30:14;;;;;;;4.83;3.83;;;;;;;19.27;94.38;101007.34;4968080;28;20213;-71
2022/08/13 06:32:44;;;;;;;12.67;7.27;;;;;;;19.47;94.60;101008.84;4971170;28;20212;-69
2022/08/13 06:35:11;;;;;;;6.77;4.73;;;;;;;19.67;93.08;101005.91;4970370;28;20217;-71
2022/08/13 06:37:41;;;;;;;5.97;4.10;;;;;;;19.82;92.39;101003.34;4982691;28;20218;-68
2022/08/13 06:40:11;;;;;;;4.83;4.33;;;;;;;19.98;91.18;101006.78;4970244;28;20210;-69
2022/08/13 06:42:44;;;;;;;5.00;4.00;;;;;;;20.03;90.20;101002.09;4965949;28;20228;-68
2022/08/13 06:45:13;;;;;;;4.93;4.20;;;;;;;20.21;90.28;101010.69;4967301;28;20580;-68
2022/08/13 06:47:40;;;;;;;9.17;4.50;;;;;;;20.38;89.28;101014.09;4948194;28;20599;-68
2022/08/13 06:50:10;;;;;;;4.97;4.27;;;;;;;20.56;87.70;101012.13;4963378;28;20220;-68
2022/08/13 06:52:37;;;;;;;4.80;4.30;;;;;;;20.68;87.87;101010.53;4971138;28;20198;-68
2022/08/13 06:55:06;;;;;;;6.10;4.33;;;;;;;20.77;87.52;101015.25;4977712;28;20221;-70
2022/08/13 06:57:34;;;;;;;6.03;4.00;;;;;;;20.88;87.26;101014.56;4972713;28;20260;-68
2022/08/13 07:00:03;;;;;;;5.63;4.43;;;;;;;21.02;86.21;101017.22;4962195;28;20226;-67
2022/08/13 07:02:32;;;;;;;7.07;5.27;;;;;;;21.13;85.76;101017.38;4967271;28;20202;-69
2022/08/13 07:04:59;;;;;;;11.37;7.07;;;;;;;21.31;86.00;101010.03;4963895;28;20315;-69
2022/08/13 07:07:26;;;;;;;7.17;5.47;;;;;;;21.45;84.82;101010.94;4964075;28;20755;-69
2022/08/13 07:09:54;;;;;;;4.87;4.17;;;;;;;21.61;84.49;101013.47;4974717;28;20212;-68
2022/08/13 07:12:21;;;;;;;4.90;4.20;;;;;;;21.69;84.12;101019.94;4960225;28;20306;-70
2022/08/13 07:14:48;;;;;;;5.13;4.47;;;;;;;21.70;83.11;101016.31;4969879;28;20234;-69
2022/08/13 07:17:14;;;;;;;4.93;4.17;;;;;;;21.71;82.20;101020.69;4965794;28;20790;-71
2022/08/13 07:19:42;;;;;;;29.57;18.33;;;;;;;21.75;82.02;101024.84;4967960;28;20260;-68
2022/08/13 07:22:09;;;;;;;6.43;5.00;;;;;;;21.80;81.16;101021.88;4968742;28;20211;-69
2022/08/13 07:24:35;;;;;;;9.07;7.80;;;;;;;21.80;81.10;101018.38;4969553;28;20197;-69
2022/08/13 07:27:05;;;;;;;5.53;4.53;;;;;;;21.80;80.72;101021.88;4969405;28;20234;-70
2022/08/13 07:29:36;;;;;;;5.90;4.27;;;;;;;21.84;80.69;101022.53;4965374;28;20198;-68
2022/08/13 07:32:03;;;;;;;6.07;4.73;;;;;;;21.90;80.19;101022.97;4972562;28;20202;-68
2022/08/13 07:34:31;;;;;;;9.80;4.80;;;;;;;21.93;81.17;101013.94;4967718;28;20217;-68
2022/08/13 07:36:59;;;;;;;5.60;4.57;;;;;;;21.93;81.27;101024.56;4971216;28;20226;-70
2022/08/13 07:39:26;;;;;;;6.13;4.63;;;;;;;21.86;81.33;101023.28;4974265;28;20198;-70
2022/08/13 07:41:55;;;;;;;7.10;4.40;;;;;;;21.83;81.25;101020.81;4966824;28;20209;-69
2022/08/13 07:44:23;;;;;;;6.27;4.63;;;;;;;21.84;80.89;101018.06;4964210;28;20198;-70
2022/08/13 07:46:51;;;;;;;5.70;4.43;;;;;;;21.84;80.63;101028.69;4961970;28;20225;-71
2022/08/13 07:49:20;;;;;;;4.73;3.93;;;;;;;21.90;81.24;101035.41;4963834;28;20202;-70
2022/08/13 07:51:47;;;;;;;13.43;8.20;;;;;;;21.87;80.74;101033.78;4963201;28;20206;-69
2022/08/13 07:54:15;;;;;;;17.57;11.30;;;;;;;21.90;80.59;101024.78;4963406;28;20214;-71
2022/08/13 07:56:47;;;;;;;5.90;4.28;;;;;;;21.94;79.89;101031.56;4976699;28;20240;-70
2022/08/13 07:59:17;;;;;;;5.60;4.57;;;;;;;21.96;80.80;101034.97;4960556;28;20718;-70
2022/08/13 08:01:46;;;;;;;4.83;4.40;;;;;;;21.97;80.75;101041.13;4969775;28;20217;-69
2022/08/13 08:04:14;;;;;;;7.23;4.47;;;;;;;21.96;80.71;101034.13;4967602;28;20209;-69
2022/08/13 08:06:41;;;;;;;5.50;4.13;;;;;;;21.91;80.84;101031.78;4961460;28;20227;-70
2022/08/13 08:09:08;;;;;;;6.40;4.72;;;;;;;21.98;81.15;101041.03;4959335;28;20264;-69
2022/08/13 08:14:24;;;;;;;8.53;5.60;;;;;;;21.86;81.29;101033.88;4961240;28;20210;-69
2022/08/13 08:16:50;;;;;;;4.77;4.23;;;;;;;21.78;81.90;101046.84;4963827;28;20293;-70
2022/08/13 08:19:17;;;;;;;12.87;8.67;;;;;;;21.69;82.11;101035.03;4961757;28;20221;-69
2022/08/13 08:21:44;;;;;;;9.50;7.13;;;;;;;21.58;82.39;101038.38;4970896;28;20216;-68
2022/08/13 08:24:13;;;;;;;6.20;4.63;;;;;;;21.53;82.53;101038.69;4959557;28;20213;-70
2022/08/13 08:26:42;;;;;;;5.20;4.33;;;;;;;21.54;83.20;101039.53;4971127;28;20362;-69
2022/08/13 08:29:10;;;;;;;9.20;5.83;;;;;;;21.56;83.12;101040.28;4969529;28;20210;-69
2022/08/13 08:31:39;;;;;;;5.53;4.57;;;;;;;21.60;82.71;101035.63;4971248;28;20205;-70
2022/08/13 08:34:07;;;;;;;5.37;4.70;;;;;;;21.59;83.20;101037.44;4968289;28;20213;-69
2022/08/13 08:36:38;;;;;;;5.40;4.67;;;;;;;21.58;83.51;101035.72;4970766;28;20249;-69
2022/08/13 08:44:38;;;;;;;10.07;6.77;;;;;;;21.64;82.68;101031.84;4972215;28;20287;-69
2022/08/13 08:47:07;;;;;;;5.73;4.53;;;;;;;21.75;82.68;101031.94;4967940;28;20209;-70
2022/08/13 08:49:35;;;;;;;5.30;4.73;;;;;;;21.85;82.05;101032.19;4967602;28;20201;-70
2022/08/13 08:52:02;;;;;;;6.80;4.73;;;;;;;21.91;81.67;101029.13;4968744;28;20201;-70
2022/08/13 08:54:30;;;;;;;5.93;4.30;;;;;;;22.01;81.43;101030.19;4964852;28;20199;-68
2022/08/13 08:56:58;;;;;;;6.60;4.50;;;;;;;22.06;81.51;101028.09;4968553;28;20221;-69
2022/08/13 08:59:28;;;;;;;5.40;4.80;;;;;;;22.13;80.73;101032.03;4968794;28;20202;-68
2022/08/13 09:01:57;;;;;;;6.18;5.15;;;;;;;22.23;80.06;101024.28;4967456;28;20573;-70
2022/08/13 09:04:28;;;;;;;6.00;5.03;;;;;;;22.31;80.63;101032.59;4968400;28;20265;-69
2022/08/13 09:06:57;;;;;;;6.15;4.82;;;;;;;22.37;79.46;101035.78;4966130;28;20397;-70
2022/08/13 09:09:24;;;;;;;6.50;5.20;;;;;;;22.35;79.45;101038.53;4968213;28;20197;-68
2022/08/13 09:11:53;;;;;;;5.00;3.90;;;;;;;22.29;79.74;101033.66;4969200;28;20697;-71
2022/08/13 09:14:22;;;;;;;6.03;4.43;;;;;;;22.37;79.94;101041.09;4965070;28;20222;-69
2022/08/13 09:16:49;;;;;;;5.18;4.00;;;;;;;22.36;79.25;101037.59;4968685;28;20226;-68
2022/08/13 09:19:15;;;;;;;5.45;4.45;;;;;;;22.32;80.00;101041.41;4966456;28;20567;-69
2022/08/13 09:21:46;;;;;;;6.88;4.40;;;;;;;22.41;79.39;101040.78;4968153;28;20228;-69
2022/08/13 09:24:15;;;;;;;4.90;3.85;;;;;;;22.37;79.11;101049.06;4970315;28;20193;-68
2022/08/13 09:26:45;;;;;;;8.82;5.50;;;;;;;22.48;79.40;101052.69;4968516;28;20329;-72
2022/08/13 09:29:14;;;;;;;5.03;3.80;;;;;;;22.58;78.87;101046.72;4969050;28;20597;-73
2022/08/13 09:31:44;;;;;;;5.97;4.30;;;;;;;22.62;78.82;101053.50;4968959;28;20216;-69
2022/08/13 09:34:10;;;;;;;5.57;4.10;;;;;;;22.56;79.22;101049.47;4965919;28;20249;-68
2022/08/13 09:36:37;;;;;;;6.38;4.50;;;;;;;22.32;80.22;101065.28;4967997;28;20236;-69
2022/08/13 09:39:04;;;;;;;7.00;4.50;;;;;;;22.23;81.83;101065.91;4965580;28;20202;-72
2022/08/13 09:41:36;;;;;;;6.82;4.20;;;;;;;22.22;87.43;101065.06;4962721;28;20201;-68
2022/08/13 09:44:04;;;;;;;5.97;4.28;;;;;;;21.98;95.37;101069.38;4966326;28;20210;-69
2022/08/13 09:46:34;;;;;;;4.70;3.88;;;;;;;21.50;100.00;101061.91;4968626;28;21895;-71
2022/08/13 09:49:03;;;;;;;4.60;4.10;;;;;;;21.08;100.00;101051.28;4965780;28;20280;-70
2022/08/13 09:51:31;;;;;;;6.30;4.40;;;;;;;20.91;100.00;101054.97;4965079;28;20202;-68
2022/08/13 09:53:58;;;;;;;4.90;4.27;;;;;;;20.76;100.00;101048.84;4970684;28;20210;-68
2022/08/13 09:56:24;;;;;;;6.53;4.83;;;;;;;20.61;100.00;101053.31;4970459;28;20226;-70
2022/08/13 09:58:52;;;;;;;8.83;5.00;;;;;;;20.53;100.00;101036.16;4964495;28;20213;-70
2022/08/13 10:01:19;;;;;;;6.83;4.70;;;;;;;20.54;100.00;101032.56;4967211;28;20202;-69
2022/08/13 10:03:48;;;;;;;7.53;4.70;;;;;;;20.54;100.00;101036.03;4951025;28;20210;-70
2022/08/13 10:06:18;;;;;;;6.07;5.20;;;;;;;20.60;100.00;101030.38;4961439;28;20225;-69
2022/08/13 10:08:46;;;;;;;6.27;4.87;;;;;;;20.53;100.00;101031.72;4967712;28;20931;-68
2022/08/13 10:11:13;;;;;;;6.50;5.07;;;;;;;20.51;100.00;101017.72;4967940;28;20206;-68
2022/08/13 10:13:40;;;;;;;6.47;5.33;;;;;;;20.42;100.00;101015.63;4964738;28;20285;-68
2022/08/13 10:16:06;;;;;;;6.40;5.40;;;;;;;20.42;100.00;101018.25;4964349;28;20226;-68
2022/08/13 10:18:32;;;;;;;7.03;4.73;;;;;;;20.47;100.00;101007.41;4968250;28;20198;-68
2022/08/13 10:20:59;;;;;;;6.63;5.33;;;;;;;20.52;100.00;100998.22;4966468;28;20658;-69
2022/08/13 10:23:26;;;;;;;7.07;5.50;;;;;;;20.44;100.00;100997.84;4964089;28;20203;-69
2022/08/13 10:25:53;;;;;;;7.73;5.87;;;;;;;20.53;100.00;100989.34;4965367;28;20225;-69
2022/08/13 10:28:22;;;;;;;8.10;6.17;;;;;;;20.57;100.00;100987.34;4964380;28;20202;-69
2022/08/13 10:30:48;;;;;;;9.10;6.43;;;;;;;20.60;100.00;100977.41;4970853;28;20209;-69
2022/08/13 10:33:16;;;;;;;9.87;6.00;;;;;;;20.68;100.00;100976.09;4961603;28;20208;-70
2022/08/13 10:35:44;;;;;;;9.53;6.40;;;;;;;20.68;100.00;100982.25;4966624;28;20233;-70
2022/08/13 10:38:15;;;;;;;7.37;6.17;;;;;;;20.75;100.00;100980.06;4967206;28;20699;-69
2022/08/13 10:40:42;;;;;;;8.23;6.23;;;;;;;20.79;100.00;100979.78;4967751;28;20210;-69
2022/08/13 10:43:10;;;;;;;8.77;6.53;;;;;;;20.85;100.00;100983.84;4965673;28;20206;-68
2022/08/13 10:45:42;;;;;;;8.07;6.20;;;;;;;20.91;100.00;100983.44;4971474;28;20202;-69
2022/08/13 10:48:12;;;;;;;7.30;6.27;;;;;;;21.01;100.00;100977.56;4966591;28;20240;-70
2022/08/13 10:50:39;;;;;;;7.57;5.83;;;;;;;21.08;100.00;100978.88;4965420;28;21228;-71
2022/08/13 10:53:06;;;;;;;8.63;6.27;;;;;;;21.25;100.00;100978.63;4966698;28;20194;-68
2022/08/13 10:55:35;;;;;;;7.83;6.07;;;;;;;21.40;100.00;100973.25;4968241;28;20215;-68
2022/08/13 10:58:03;;;;;;;7.00;6.00;;;;;;;21.54;100.00;100966.09;4963872;28;20206;-68
2022/08/13 11:00:30;;;;;;;10.50;6.27;;;;;;;21.69;100.00;100969.53;4972932;28;20205;-68
2022/08/13 11:02:57;;;;;;;8.00;6.47;;;;;;;22.07;100.00;100973.16;4971637;28;20202;-69
2022/08/13 11:05:26;;;;;;;6.50;5.17;;;;;;;22.12;100.00;100974.53;4980643;28;20210;-68
2022/08/13 11:07:53;;;;;;;5.37;4.63;;;;;;;22.22;100.00;100974.78;4979399;28;20284;-68
2022/08/13 11:10:21;;;;;;;7.07;4.83;;;;;;;22.43;100.00;100972.44;4977450;28;20194;-68
2022/08/13 11:12:50;;;;;;;4.93;4.37;;;;;;;22.62;100.00;100976.44;4980535;28;20254;-71
2022/08/13 11:15:20;;;;;;;4.78;4.28;;;;;;;22.51;97.11;100974.56;4978658;28;20216;-70
2022/08/13 11:17:48;;;;;;;7.43;4.40;;;;;;;22.54;97.33;100973.50;4979549;28;20218;-68
2022/08/13 11:20:18;;;;;;;7.17;4.37;;;;;;;22.48;96.01;100964.16;4975957;28;20193;-68
2022/08/13 11:22:45;;;;;;;4.97;4.13;;;;;;;22.64;95.50;100969.25;4973402;28;20202;-69
2022/08/13 11:25:11;;;;;;;5.35;4.55;;;;;;;22.67;93.61;100975.19;4967129;28;20562;-70
2022/08/13 11:27:38;;;;;;;4.57;3.63;;;;;;;22.87;93.42;100976.38;4968552;28;20241;-70
2022/08/13 11:30:05;;;;;;;6.05;4.68;;;;;;;23.06;93.54;100975.94;4965536;28;20198;-68
2022/08/13 11:32:33;;;;;;;5.65;4.38;;;;;;;23.23;91.46;100976.50;4962603;28;20205;-69
2022/08/13 11:34:59;;;;;;;5.13;4.55;;;;;;;23.31;91.68;100970.63;4967275;28;20232;-70
2022/08/13 11:37:25;;;;;;;5.22;4.57;;;;;;;23.39;90.72;100974.41;4964373;28;20232;-69
2022/08/13 11:39:52;;;;;;;5.47;4.32;;;;;;;23.68;89.92;100975.84;4960235;28;20203;-69
2022/08/13 11:42:18;;;;;;;5.53;3.92;;;;;;;23.85;87.67;100967.44;4959304;28;20217;-70
2022/08/13 11:44:44;;;;;;;5.18;4.38;;;;;;;24.11;87.17;100967.22;4946532;28;20210;-69